sensor_id;sensor_type;location;lat;lon;timestamp;P1;durP1;ratioP1;P2;durP2;ratioP2
59161;SDS011;44942;48.936;8.260;2023-05-16T00:01:38;7.90;;;7.15;;
59161;SDS011;44942;48.936;8.260;2023-05-16T00:06:38;7.40;;;6.73;;
59161;SDS011;44942;48.936;8.260;2023-05-16T00:11:39;7.75;;;7.05;;
59161;SDS011;44942;48.936;8.260;2023-05-16T00:16:40;7.70;;;7.00;;
59161;SDS011;44942;48.936;8.260;2023-05-16T00:21:40;8.37;;;7.57;;
59161;SDS011;44942;48.936;8.260;2023-05-16T00:26:41;8.05;;;7.32;;
59161;SDS011;44942;48.936;8.260;2023-05-16T00:31:42;8.20;;;7.50;;
59161;SDS011;44942;48.936;8.260;2023-05-16T00:36:42;7.97;;;7.20;;
59161;SDS011;44942;48.936;8.260;2023-05-16T00:41:43;7.83;;;7.17;;
59161;SDS011;44942;48.936;8.260;2023-05-16T00:46:45;7.55;;;6.95;;
59161;SDS011;44942;48.936;8.260;2023-05-16T00:51:45;8.43;;;6.90;;
59161;SDS011;44942;48.936;8.260;2023-05-16T00:56:46;8.40;;;7.53;;
59161;SDS011;44942;48.936;8.260;2023-05-16T01:01:47;7.78;;;7.07;;
59161;SDS011;44942;48.936;8.260;2023-05-16T01:06:50;8.15;;;7.40;;
59161;SDS011;44942;48.936;8.260;2023-05-16T01:12:10;8.47;;;7.20;;
59161;SDS011;44942;48.936;8.260;2023-05-16T01:28:38;7.55;;;6.85;;
59161;SDS011;44942;48.936;8.260;2023-05-16T01:33:40;8.00;;;7.30;;
59161;SDS011;44942;48.936;8.260;2023-05-16T01:38:43;7.90;;;7.20;;
59161;SDS011;44942;48.936;8.260;2023-05-16T01:43:53;8.30;;;7.50;;
59161;SDS011;44942;48.936;8.260;2023-05-16T01:49:19;8.35;;;7.55;;
59161;SDS011;44942;48.936;8.260;2023-05-16T01:54:24;9.02;;;8.05;;
59161;SDS011;44942;48.936;8.260;2023-05-16T01:59:31;8.38;;;7.65;;
59161;SDS011;44942;48.936;8.260;2023-05-16T02:04:32;8.38;;;7.68;;
59161;SDS011;44942;48.936;8.260;2023-05-16T02:09:32;8.30;;;7.50;;
59161;SDS011;44942;48.936;8.260;2023-05-16T02:14:33;8.20;;;7.30;;
59161;SDS011;44942;48.936;8.260;2023-05-16T02:19:33;8.50;;;7.80;;
59161;SDS011;44942;48.936;8.260;2023-05-16T02:24:34;8.63;;;7.70;;
59161;SDS011;44942;48.936;8.260;2023-05-16T02:29:35;11.23;;;8.33;;
59161;SDS011;44942;48.936;8.260;2023-05-16T02:34:35;8.80;;;8.03;;
59161;SDS011;44942;48.936;8.260;2023-05-16T02:39:36;9.23;;;7.73;;
59161;SDS011;44942;48.936;8.260;2023-05-16T02:44:36;9.60;;;8.68;;
59161;SDS011;44942;48.936;8.260;2023-05-16T02:49:37;10.90;;;8.83;;
59161;SDS011;44942;48.936;8.260;2023-05-16T02:54:38;11.20;;;9.67;;
59161;SDS011;44942;48.936;8.260;2023-05-16T02:59:38;10.70;;;9.60;;
59161;SDS011;44942;48.936;8.260;2023-05-16T03:04:39;11.25;;;10.27;;
59161;SDS011;44942;48.936;8.260;2023-05-16T03:09:39;10.83;;;9.77;;
59161;SDS011;44942;48.936;8.260;2023-05-16T03:14:40;10.65;;;9.75;;
59161;SDS011;44942;48.936;8.260;2023-05-16T03:19:41;11.77;;;10.67;;
59161;SDS011;44942;48.936;8.260;2023-05-16T03:24:41;11.43;;;10.43;;
59161;SDS011;44942;48.936;8.260;2023-05-16T03:29:42;12.63;;;11.30;;
59161;SDS011;44942;48.936;8.260;2023-05-16T03:34:43;13.53;;;12.23;;
59161;SDS011;44942;48.936;8.260;2023-05-16T03:39:43;13.83;;;12.53;;
59161;SDS011;44942;48.936;8.260;2023-05-16T03:44:44;14.13;;;12.63;;
59161;SDS011;44942;48.936;8.260;2023-05-16T03:49:45;15.25;;;13.02;;
59161;SDS011;44942;48.936;8.260;2023-05-16T03:54:45;14.23;;;12.83;;
59161;SDS011;44942;48.936;8.260;2023-05-16T03:59:46;13.57;;;12.20;;
59161;SDS011;44942;48.936;8.260;2023-05-16T04:04:46;14.00;;;12.63;;
59161;SDS011;44942;48.936;8.260;2023-05-16T04:09:47;14.32;;;12.82;;
59161;SDS011;44942;48.936;8.260;2023-05-16T04:14:48;14.37;;;12.90;;
59161;SDS011;44942;48.936;8.260;2023-05-16T04:19:48;14.57;;;12.80;;
59161;SDS011;44942;48.936;8.260;2023-05-16T04:24:49;14.70;;;12.57;;
59161;SDS011;44942;48.936;8.260;2023-05-16T04:29:49;14.50;;;12.90;;
59161;SDS011;44942;48.936;8.260;2023-05-16T04:34:50;13.90;;;12.35;;
59161;SDS011;44942;48.936;8.260;2023-05-16T04:39:53;51.00;;;12.38;;
59161;SDS011;44942;48.936;8.260;2023-05-16T04:44:53;19.03;;;11.70;;
59161;SDS011;44942;48.936;8.260;2023-05-16T04:49:55;16.08;;;12.15;;
59161;SDS011;44942;48.936;8.260;2023-05-16T04:54:55;15.77;;;12.00;;
59161;SDS011;44942;48.936;8.260;2023-05-16T04:59:59;18.05;;;11.70;;
59161;SDS011;44942;48.936;8.260;2023-05-16T05:04:59;14.20;;;12.00;;
59161;SDS011;44942;48.936;8.260;2023-05-16T05:10:00;14.67;;;11.97;;
59161;SDS011;44942;48.936;8.260;2023-05-16T05:15:01;13.90;;;11.80;;
59161;SDS011;44942;48.936;8.260;2023-05-16T05:20:02;13.75;;;11.52;;
59161;SDS011;44942;48.936;8.260;2023-05-16T05:25:05;14.10;;;11.23;;
59161;SDS011;44942;48.936;8.260;2023-05-16T05:30:07;14.30;;;11.80;;
59161;SDS011;44942;48.936;8.260;2023-05-16T05:35:08;13.70;;;11.82;;
59161;SDS011;44942;48.936;8.260;2023-05-16T05:40:08;12.13;;;10.90;;
59161;SDS011;44942;48.936;8.260;2023-05-16T05:45:09;13.60;;;11.00;;
59161;SDS011;44942;48.936;8.260;2023-05-16T05:50:10;12.25;;;10.90;;
59161;SDS011;44942;48.936;8.260;2023-05-16T06:00:12;51.83;;;12.17;;
59161;SDS011;44942;48.936;8.260;2023-05-16T06:05:13;20.13;;;10.93;;
59161;SDS011;44942;48.936;8.260;2023-05-16T06:10:13;23.57;;;12.50;;
59161;SDS011;44942;48.936;8.260;2023-05-16T06:15:14;23.17;;;13.33;;
59161;SDS011;44942;48.936;8.260;2023-05-16T06:20:15;22.57;;;13.50;;
59161;SDS011;44942;48.936;8.260;2023-05-16T06:25:15;20.83;;;13.50;;
59161;SDS011;44942;48.936;8.260;2023-05-16T06:30:16;21.17;;;12.50;;
59161;SDS011;44942;48.936;8.260;2023-05-16T06:35:17;21.33;;;12.13;;
59161;SDS011;44942;48.936;8.260;2023-05-16T06:40:17;25.30;;;12.60;;
59161;SDS011;44942;48.936;8.260;2023-05-16T06:45:18;22.20;;;11.80;;
59161;SDS011;44942;48.936;8.260;2023-05-16T06:50:18;25.13;;;11.47;;
59161;SDS011;44942;48.936;8.260;2023-05-16T06:55:19;21.30;;;10.47;;
59161;SDS011;44942;48.936;8.260;2023-05-16T07:00:20;16.47;;;10.67;;
59161;SDS011;44942;48.936;8.260;2023-05-16T07:05:20;17.05;;;9.77;;
59161;SDS011;44942;48.936;8.260;2023-05-16T07:10:21;13.70;;;9.10;;
59161;SDS011;44942;48.936;8.260;2023-05-16T07:15:22;13.02;;;8.15;;
59161;SDS011;44942;48.936;8.260;2023-05-16T07:20:22;15.97;;;8.20;;
59161;SDS011;44942;48.936;8.260;2023-05-16T07:25:23;12.07;;;8.02;;
59161;SDS011;44942;48.936;8.260;2023-05-16T07:35:25;13.87;;;7.00;;
59161;SDS011;44942;48.936;8.260;2023-05-16T07:40:25;10.63;;;6.60;;
59161;SDS011;44942;48.936;8.260;2023-05-16T07:45:28;9.00;;;5.55;;
59161;SDS011;44942;48.936;8.260;2023-05-16T07:50:28;10.95;;;5.82;;
59161;SDS011;44942;48.936;8.260;2023-05-16T07:55:29;8.73;;;5.57;;
59161;SDS011;44942;48.936;8.260;2023-05-16T08:00:30;6.73;;;5.20;;
59161;SDS011;44942;48.936;8.260;2023-05-16T08:05:30;6.13;;;4.67;;
59161;SDS011;44942;48.936;8.260;2023-05-16T08:10:31;6.30;;;4.15;;
59161;SDS011;44942;48.936;8.260;2023-05-16T08:15:32;6.10;;;4.10;;
59161;SDS011;44942;48.936;8.260;2023-05-16T08:20:32;4.30;;;3.53;;
59161;SDS011;44942;48.936;8.260;2023-05-16T08:25:33;4.40;;;3.37;;
59161;SDS011;44942;48.936;8.260;2023-05-16T08:30:33;3.78;;;3.08;;
59161;SDS011;44942;48.936;8.260;2023-05-16T08:35:34;3.60;;;2.97;;
59161;SDS011;44942;48.936;8.260;2023-05-16T08:40:35;3.90;;;2.63;;
59161;SDS011;44942;48.936;8.260;2023-05-16T08:45:35;3.43;;;2.30;;
59161;SDS011;44942;48.936;8.260;2023-05-16T08:50:36;2.30;;;2.10;;
59161;SDS011;44942;48.936;8.260;2023-05-16T08:55:37;3.00;;;2.30;;
59161;SDS011;44942;48.936;8.260;2023-05-16T09:00:40;4.32;;;2.00;;
59161;SDS011;44942;48.936;8.260;2023-05-16T09:05:40;2.70;;;1.85;;
59161;SDS011;44942;48.936;8.260;2023-05-16T09:10:41;2.10;;;1.90;;
59161;SDS011;44942;48.936;8.260;2023-05-16T09:15:42;4.00;;;1.97;;
59161;SDS011;44942;48.936;8.260;2023-05-16T09:20:42;2.23;;;1.80;;
59161;SDS011;44942;48.936;8.260;2023-05-16T09:25:51;2.30;;;1.88;;
59161;SDS011;44942;48.936;8.260;2023-05-16T09:30:52;2.13;;;1.80;;
59161;SDS011;44942;48.936;8.260;2023-05-16T09:35:58;1.85;;;1.35;;
59161;SDS011;44942;48.936;8.260;2023-05-16T09:40:59;3.42;;;1.30;;
59161;SDS011;44942;48.936;8.260;2023-05-16T09:46:01;3.97;;;1.45;;
59161;SDS011;44942;48.936;8.260;2023-05-16T09:51:04;1.90;;;1.33;;
59161;SDS011;44942;48.936;8.260;2023-05-16T09:56:05;3.80;;;1.50;;
59161;SDS011;44942;48.936;8.260;2023-05-16T10:01:09;2.10;;;1.45;;
59161;SDS011;44942;48.936;8.260;2023-05-16T10:06:10;2.45;;;1.33;;
59161;SDS011;44942;48.936;8.260;2023-05-16T10:11:12;1.20;;;1.08;;
59161;SDS011;44942;48.936;8.260;2023-05-16T10:16:13;1.83;;;1.10;;
59161;SDS011;44942;48.936;8.260;2023-05-16T10:21:14;2.60;;;1.23;;
59161;SDS011;44942;48.936;8.260;2023-05-16T10:26:21;1.23;;;1.13;;
59161;SDS011;44942;48.936;8.260;2023-05-16T10:31:22;1.35;;;1.00;;
59161;SDS011;44942;48.936;8.260;2023-05-16T10:36:23;1.00;;;0.85;;
59161;SDS011;44942;48.936;8.260;2023-05-16T10:41:24;0.75;;;0.75;;
59161;SDS011;44942;48.936;8.260;2023-05-16T10:46:26;1.38;;;1.27;;
59161;SDS011;44942;48.936;8.260;2023-05-16T10:56:31;0.88;;;0.80;;
59161;SDS011;44942;48.936;8.260;2023-05-16T11:01:33;0.93;;;0.77;;
59161;SDS011;44942;48.936;8.260;2023-05-16T11:16:51;1.27;;;0.90;;
59161;SDS011;44942;48.936;8.260;2023-05-16T11:27:34;1.00;;;0.80;;
59161;SDS011;44942;48.936;8.260;2023-05-16T11:32:37;0.70;;;0.70;;
59161;SDS011;44942;48.936;8.260;2023-05-16T11:37:39;1.33;;;0.73;;
59161;SDS011;44942;48.936;8.260;2023-05-16T11:42:41;1.00;;;0.70;;
59161;SDS011;44942;48.936;8.260;2023-05-16T11:47:43;1.70;;;0.88;;
59161;SDS011;44942;48.936;8.260;2023-05-16T11:52:48;1.10;;;0.75;;
59161;SDS011;44942;48.936;8.260;2023-05-16T11:57:53;1.23;;;0.70;;
59161;SDS011;44942;48.936;8.260;2023-05-16T12:02:59;3.58;;;0.70;;
59161;SDS011;44942;48.936;8.260;2023-05-16T12:08:01;3.17;;;0.88;;
59161;SDS011;44942;48.936;8.260;2023-05-16T12:13:04;1.88;;;0.63;;
59161;SDS011;44942;48.936;8.260;2023-05-16T12:18:04;3.70;;;0.93;;
59161;SDS011;44942;48.936;8.260;2023-05-16T12:23:09;0.70;;;0.70;;
59161;SDS011;44942;48.936;8.260;2023-05-16T12:28:12;1.30;;;0.80;;
59161;SDS011;44942;48.936;8.260;2023-05-16T12:33:14;1.00;;;0.80;;
59161;SDS011;44942;48.936;8.260;2023-05-16T12:38:15;1.83;;;0.70;;
59161;SDS011;44942;48.936;8.260;2023-05-16T12:43:19;1.80;;;0.90;;
59161;SDS011;44942;48.936;8.260;2023-05-16T12:48:22;3.67;;;1.00;;
59161;SDS011;44942;48.936;8.260;2023-05-16T12:53:28;3.60;;;1.40;;
59161;SDS011;44942;48.936;8.260;2023-05-16T12:58:29;2.90;;;1.20;;
59161;SDS011;44942;48.936;8.260;2023-05-16T13:03:30;4.00;;;1.43;;
59161;SDS011;44942;48.936;8.260;2023-05-16T13:08:31;4.57;;;1.50;;
59161;SDS011;44942;48.936;8.260;2023-05-16T13:13:32;4.37;;;1.30;;
59161;SDS011;44942;48.936;8.260;2023-05-16T13:18:32;2.80;;;1.37;;
59161;SDS011;44942;48.936;8.260;2023-05-16T13:23:35;3.30;;;1.30;;
59161;SDS011;44942;48.936;8.260;2023-05-16T13:28:35;4.83;;;1.57;;
59161;SDS011;44942;48.936;8.260;2023-05-16T13:33:36;3.23;;;1.53;;
59161;SDS011;44942;48.936;8.260;2023-05-16T13:38:37;4.23;;;1.80;;
59161;SDS011;44942;48.936;8.260;2023-05-16T13:48:45;5.63;;;1.50;;
59161;SDS011;44942;48.936;8.260;2023-05-16T13:53:46;4.17;;;1.50;;
59161;SDS011;44942;48.936;8.260;2023-05-16T13:58:46;3.83;;;1.73;;
59161;SDS011;44942;48.936;8.260;2023-05-16T14:03:49;6.40;;;1.67;;
59161;SDS011;44942;48.936;8.260;2023-05-16T14:08:49;6.67;;;1.90;;
59161;SDS011;44942;48.936;8.260;2023-05-16T14:13:51;2.97;;;1.33;;
59161;SDS011;44942;48.936;8.260;2023-05-16T14:18:54;5.95;;;1.70;;
59161;SDS011;44942;48.936;8.260;2023-05-16T14:23:55;5.22;;;1.80;;
59161;SDS011;44942;48.936;8.260;2023-05-16T14:28:56;4.23;;;1.60;;
59161;SDS011;44942;48.936;8.260;2023-05-16T14:33:56;4.87;;;1.50;;
59161;SDS011;44942;48.936;8.260;2023-05-16T14:38:58;4.60;;;1.77;;
59161;SDS011;44942;48.936;8.260;2023-05-16T14:43:59;7.90;;;1.58;;
59161;SDS011;44942;48.936;8.260;2023-05-16T14:48:59;5.20;;;1.60;;
59161;SDS011;44942;48.936;8.260;2023-05-16T14:54:00;7.93;;;1.43;;
59161;SDS011;44942;48.936;8.260;2023-05-16T14:59:01;7.83;;;1.93;;
59161;SDS011;44942;48.936;8.260;2023-05-16T15:04:01;6.17;;;2.63;;
59161;SDS011;44942;48.936;8.260;2023-05-16T15:09:04;8.10;;;2.58;;
59161;SDS011;44942;48.936;8.260;2023-05-16T15:14:05;6.77;;;2.50;;
59161;SDS011;44942;48.936;8.260;2023-05-16T15:19:06;8.17;;;2.50;;
59161;SDS011;44942;48.936;8.260;2023-05-16T15:24:06;7.73;;;2.40;;
59161;SDS011;44942;48.936;8.260;2023-05-16T15:29:07;6.85;;;2.28;;
59161;SDS011;44942;48.936;8.260;2023-05-16T15:34:07;9.30;;;3.03;;
59161;SDS011;44942;48.936;8.260;2023-05-16T15:39:08;17.07;;;4.27;;
59161;SDS011;44942;48.936;8.260;2023-05-16T15:44:09;10.85;;;4.13;;
59161;SDS011;44942;48.936;8.260;2023-05-16T15:49:10;16.33;;;4.17;;
59161;SDS011;44942;48.936;8.260;2023-05-16T15:59:12;11.67;;;3.70;;
59161;SDS011;44942;48.936;8.260;2023-05-16T16:04:12;13.50;;;4.37;;
59161;SDS011;44942;48.936;8.260;2023-05-16T16:09:13;10.57;;;3.27;;
59161;SDS011;44942;48.936;8.260;2023-05-16T16:14:14;10.32;;;3.50;;
59161;SDS011;44942;48.936;8.260;2023-05-16T16:19:16;12.13;;;3.38;;
59161;SDS011;44942;48.936;8.260;2023-05-16T16:24:16;11.95;;;3.08;;
59161;SDS011;44942;48.936;8.260;2023-05-16T16:29:19;10.48;;;2.80;;
59161;SDS011;44942;48.936;8.260;2023-05-16T16:34:19;8.67;;;2.90;;
59161;SDS011;44942;48.936;8.260;2023-05-16T16:39:20;8.77;;;2.70;;
59161;SDS011;44942;48.936;8.260;2023-05-16T16:44:21;9.88;;;2.50;;
59161;SDS011;44942;48.936;8.260;2023-05-16T16:49:21;11.13;;;2.43;;
59161;SDS011;44942;48.936;8.260;2023-05-16T16:54:22;8.17;;;2.20;;
59161;SDS011;44942;48.936;8.260;2023-05-16T16:59:23;5.38;;;2.00;;
59161;SDS011;44942;48.936;8.260;2023-05-16T17:04:23;10.17;;;2.43;;
59161;SDS011;44942;48.936;8.260;2023-05-16T17:09:24;8.80;;;2.17;;
59161;SDS011;44942;48.936;8.260;2023-05-16T17:14:26;6.85;;;1.92;;
59161;SDS011;44942;48.936;8.260;2023-05-16T17:19:26;7.77;;;2.13;;
59161;SDS011;44942;48.936;8.260;2023-05-16T17:24:27;9.37;;;1.97;;
59161;SDS011;44942;48.936;8.260;2023-05-16T17:29:27;7.87;;;2.10;;
59161;SDS011;44942;48.936;8.260;2023-05-16T17:34:29;9.25;;;2.08;;
59161;SDS011;44942;48.936;8.260;2023-05-16T17:39:30;17.00;;;2.80;;
59161;SDS011;44942;48.936;8.260;2023-05-16T17:44:30;10.43;;;2.20;;
59161;SDS011;44942;48.936;8.260;2023-05-16T17:49:31;8.10;;;2.10;;
59161;SDS011;44942;48.936;8.260;2023-05-16T17:54:31;9.50;;;2.33;;
59161;SDS011;44942;48.936;8.260;2023-05-16T17:59:32;10.90;;;2.10;;
59161;SDS011;44942;48.936;8.260;2023-05-16T18:04:32;5.73;;;1.80;;
59161;SDS011;44942;48.936;8.260;2023-05-16T18:09:33;7.63;;;2.00;;
59161;SDS011;44942;48.936;8.260;2023-05-16T18:14:34;5.78;;;1.95;;
59161;SDS011;44942;48.936;8.260;2023-05-16T18:19:35;7.27;;;2.10;;
59161;SDS011;44942;48.936;8.260;2023-05-16T18:24:35;6.70;;;1.80;;
59161;SDS011;44942;48.936;8.260;2023-05-16T18:29:36;4.72;;;1.58;;
59161;SDS011;44942;48.936;8.260;2023-05-16T18:34:37;5.47;;;1.53;;
59161;SDS011;44942;48.936;8.260;2023-05-16T18:39:37;6.70;;;1.97;;
59161;SDS011;44942;48.936;8.260;2023-05-16T18:44:40;4.82;;;1.67;;
59161;SDS011;44942;48.936;8.260;2023-05-16T18:49:40;3.70;;;1.50;;
59161;SDS011;44942;48.936;8.260;2023-05-16T18:59:42;6.07;;;2.33;;
59161;SDS011;44942;48.936;8.260;2023-05-16T19:04:43;3.83;;;1.87;;
59161;SDS011;44942;48.936;8.260;2023-05-16T19:09:43;4.93;;;1.80;;
59161;SDS011;44942;48.936;8.260;2023-05-16T19:14:46;6.45;;;2.15;;
59161;SDS011;44942;48.936;8.260;2023-05-16T19:19:47;5.88;;;2.00;;
59161;SDS011;44942;48.936;8.260;2023-05-16T19:24:47;4.37;;;1.63;;
59161;SDS011;44942;48.936;8.260;2023-05-16T19:29:48;5.50;;;1.80;;
59161;SDS011;44942;48.936;8.260;2023-05-16T19:34:49;3.00;;;1.45;;
59161;SDS011;44942;48.936;8.260;2023-05-16T19:39:50;4.68;;;1.70;;
59161;SDS011;44942;48.936;8.260;2023-05-16T19:44:50;3.13;;;1.40;;
59161;SDS011;44942;48.936;8.260;2023-05-16T19:49:51;3.90;;;1.50;;
59161;SDS011;44942;48.936;8.260;2023-05-16T19:54:51;3.03;;;1.20;;
59161;SDS011;44942;48.936;8.260;2023-05-16T19:59:52;3.17;;;1.40;;
59161;SDS011;44942;48.936;8.260;2023-05-16T20:04:53;3.17;;;1.40;;
59161;SDS011;44942;48.936;8.260;2023-05-16T20:09:53;2.50;;;1.40;;
59161;SDS011;44942;48.936;8.260;2023-05-16T20:14:54;4.20;;;1.55;;
59161;SDS011;44942;48.936;8.260;2023-05-16T20:19:55;3.00;;;1.37;;
59161;SDS011;44942;48.936;8.260;2023-05-16T20:24:55;3.60;;;1.20;;
59161;SDS011;44942;48.936;8.260;2023-05-16T20:29:56;4.53;;;1.40;;
59161;SDS011;44942;48.936;8.260;2023-05-16T20:34:57;4.03;;;1.33;;
59161;SDS011;44942;48.936;8.260;2023-05-16T20:39:58;5.50;;;1.40;;
59161;SDS011;44942;48.936;8.260;2023-05-16T20:44:59;3.37;;;1.23;;
59161;SDS011;44942;48.936;8.260;2023-05-16T20:50:00;2.38;;;1.30;;
59161;SDS011;44942;48.936;8.260;2023-05-16T20:55:01;3.50;;;1.37;;
59161;SDS011;44942;48.936;8.260;2023-05-16T21:00:01;2.97;;;1.17;;
59161;SDS011;44942;48.936;8.260;2023-05-16T21:05:02;3.35;;;1.42;;
59161;SDS011;44942;48.936;8.260;2023-05-16T21:10:03;4.10;;;1.30;;
59161;SDS011;44942;48.936;8.260;2023-05-16T21:15:04;4.53;;;1.73;;
59161;SDS011;44942;48.936;8.260;2023-05-16T21:20:06;4.10;;;1.63;;
59161;SDS011;44942;48.936;8.260;2023-05-16T21:25:07;3.58;;;1.20;;
59161;SDS011;44942;48.936;8.260;2023-05-16T21:30:08;2.72;;;1.10;;
59161;SDS011;44942;48.936;8.260;2023-05-16T21:35:09;3.03;;;1.30;;
59161;SDS011;44942;48.936;8.260;2023-05-16T21:40:09;3.97;;;1.20;;
59161;SDS011;44942;48.936;8.260;2023-05-16T21:45:13;3.15;;;1.33;;
59161;SDS011;44942;48.936;8.260;2023-05-16T21:50:15;3.00;;;1.20;;
59161;SDS011;44942;48.936;8.260;2023-05-16T21:55:17;3.63;;;1.10;;
59161;SDS011;44942;48.936;8.260;2023-05-16T22:00:17;2.87;;;1.23;;
59161;SDS011;44942;48.936;8.260;2023-05-16T22:05:18;3.58;;;1.10;;
59161;SDS011;44942;48.936;8.260;2023-05-16T22:10:19;3.37;;;1.37;;
59161;SDS011;44942;48.936;8.260;2023-05-16T22:15:19;5.57;;;1.40;;
59161;SDS011;44942;48.936;8.260;2023-05-16T22:20:20;4.77;;;1.10;;
59161;SDS011;44942;48.936;8.260;2023-05-16T22:25:20;3.77;;;1.20;;
59161;SDS011;44942;48.936;8.260;2023-05-16T22:30:21;2.07;;;1.17;;
59161;SDS011;44942;48.936;8.260;2023-05-16T22:35:21;3.27;;;1.10;;
59161;SDS011;44942;48.936;8.260;2023-05-16T22:40:24;4.10;;;1.20;;
59161;SDS011;44942;48.936;8.260;2023-05-16T22:45:28;3.05;;;1.30;;
59161;SDS011;44942;48.936;8.260;2023-05-16T22:50:28;4.20;;;1.30;;
59161;SDS011;44942;48.936;8.260;2023-05-16T22:55:29;6.23;;;1.33;;
59161;SDS011;44942;48.936;8.260;2023-05-16T23:00:30;3.80;;;1.50;;
59161;SDS011;44942;48.936;8.260;2023-05-16T23:05:30;4.30;;;1.10;;
59161;SDS011;44942;48.936;8.260;2023-05-16T23:10:31;3.13;;;1.20;;
59161;SDS011;44942;48.936;8.260;2023-05-16T23:15:31;3.07;;;1.27;;
59161;SDS011;44942;48.936;8.260;2023-05-16T23:20:32;2.90;;;1.30;;
59161;SDS011;44942;48.936;8.260;2023-05-16T23:25:32;4.37;;;1.80;;
59161;SDS011;44942;48.936;8.260;2023-05-16T23:30:33;2.83;;;1.20;;
59161;SDS011;44942;48.936;8.260;2023-05-16T23:35:33;4.23;;;1.60;;
59161;SDS011;44942;48.936;8.260;2023-05-16T23:40:34;4.40;;;1.47;;
59161;SDS011;44942;48.936;8.260;2023-05-16T23:45:35;4.20;;;1.13;;
59161;SDS011;44942;48.936;8.260;2023-05-16T23:50:35;3.60;;;1.30;;
59161;SDS011;44942;48.936;8.260;2023-05-16T23:55:36;3.73;;;1.30;;
